sensor_id;sensor_type;location;lat;lon;timestamp;temperature;humidity
18880;DHT22;9572;52.378;13.404;2022-11-20T00:00:17;0.30;99.90
18880;DHT22;9572;52.378;13.404;2022-11-20T00:02:44;0.30;99.90
18880;DHT22;9572;52.378;13.404;2022-11-20T00:05:11;0.40;99.90
18880;DHT22;9572;52.378;13.404;2022-11-20T00:07:38;0.30;99.90
18880;DHT22;9572;52.378;13.404;2022-11-20T00:10:07;0.30;99.90
18880;DHT22;9572;52.378;13.404;2022-11-20T00:12:34;0.30;99.90
18880;DHT22;9572;52.378;13.404;2022-11-20T00:15:01;0.40;99.90
18880;DHT22;9572;52.378;13.404;2022-11-20T00:17:28;0.30;99.90
18880;DHT22;9572;52.378;13.404;2022-11-20T00:19:55;0.30;99.90
18880;DHT22;9572;52.378;13.404;2022-11-20T00:22:21;0.30;99.90
18880;DHT22;9572;52.378;13.404;2022-11-20T00:24:48;0.30;99.90
18880;DHT22;9572;52.378;13.404;2022-11-20T00:27:17;0.30;99.90
18880;DHT22;9572;52.378;13.404;2022-11-20T00:29:43;0.30;99.90
18880;DHT22;9572;52.378;13.404;2022-11-20T00:32:10;0.30;99.90
18880;DHT22;9572;52.378;13.404;2022-11-20T00:34:37;0.30;99.90
18880;DHT22;9572;52.378;13.404;2022-11-20T00:37:04;0.20;99.90
18880;DHT22;9572;52.378;13.404;2022-11-20T00:39:31;0.30;99.90
18880;DHT22;9572;52.378;13.404;2022-11-20T00:41:58;0.20;99.90
18880;DHT22;9572;52.378;13.404;2022-11-20T00:44:26;0.20;99.90
18880;DHT22;9572;52.378;13.404;2022-11-20T00:46:53;0.30;99.90
18880;DHT22;9572;52.378;13.404;2022-11-20T00:49:20;0.20;99.90
18880;DHT22;9572;52.378;13.404;2022-11-20T00:51:47;0.20;99.90
18880;DHT22;9572;52.378;13.404;2022-11-20T00:54:14;0.20;99.90
18880;DHT22;9572;52.378;13.404;2022-11-20T00:56:41;0.20;99.90
18880;DHT22;9572;52.378;13.404;2022-11-20T00:59:09;0.20;99.90
18880;DHT22;9572;52.378;13.404;2022-11-20T01:01:37;0.20;99.90
18880;DHT22;9572;52.378;13.404;2022-11-20T01:04:05;0.10;99.90
18880;DHT22;9572;52.378;13.404;2022-11-20T01:06:33;0.10;99.90
18880;DHT22;9572;52.378;13.404;2022-11-20T01:09:03;0.10;99.90
18880;DHT22;9572;52.378;13.404;2022-11-20T01:11:31;0.20;99.90
18880;DHT22;9572;52.378;13.404;2022-11-20T01:13:59;0.10;99.90
18880;DHT22;9572;52.378;13.404;2022-11-20T01:16:28;0.10;99.90
18880;DHT22;9572;52.378;13.404;2022-11-20T01:18:59;0.00;99.90
18880;DHT22;9572;52.378;13.404;2022-11-20T01:21:28;0.00;99.90
18880;DHT22;9572;52.378;13.404;2022-11-20T01:23:56;0.10;99.90
18880;DHT22;9572;52.378;13.404;2022-11-20T01:26:25;0.00;99.90
18880;DHT22;9572;52.378;13.404;2022-11-20T01:28:53;0.00;99.90
18880;DHT22;9572;52.378;13.404;2022-11-20T01:31:22;0.00;99.90
18880;DHT22;9572;52.378;13.404;2022-11-20T01:33:51;0.00;99.90
18880;DHT22;9572;52.378;13.404;2022-11-20T01:36:21;0.00;99.90
18880;DHT22;9572;52.378;13.404;2022-11-20T01:38:51;0.00;99.90
18880;DHT22;9572;52.378;13.404;2022-11-20T01:41:18;-0.10;99.90
18880;DHT22;9572;52.378;13.404;2022-11-20T01:43:59;-0.10;99.90
18880;DHT22;9572;52.378;13.404;2022-11-20T01:46:26;-0.10;99.90
18880;DHT22;9572;52.378;13.404;2022-11-20T01:48:56;-0.20;99.90
18880;DHT22;9572;52.378;13.404;2022-11-20T01:51:29;-0.20;99.90
18880;DHT22;9572;52.378;13.404;2022-11-20T01:53:59;-0.20;99.90
18880;DHT22;9572;52.378;13.404;2022-11-20T01:56:28;-0.20;99.90
18880;DHT22;9572;52.378;13.404;2022-11-20T01:58:59;-0.20;99.90
18880;DHT22;9572;52.378;13.404;2022-11-20T02:01:27;-0.30;99.90
18880;DHT22;9572;52.378;13.404;2022-11-20T02:03:54;-0.20;99.90
18880;DHT22;9572;52.378;13.404;2022-11-20T02:06:24;-0.30;99.90
18880;DHT22;9572;52.378;13.404;2022-11-20T02:08:54;-0.30;99.90
18880;DHT22;9572;52.378;13.404;2022-11-20T02:11:21;-0.30;99.90
18880;DHT22;9572;52.378;13.404;2022-11-20T02:13:48;-0.30;99.90
18880;DHT22;9572;52.378;13.404;2022-11-20T02:16:21;-0.30;99.90
18880;DHT22;9572;52.378;13.404;2022-11-20T02:18:49;-0.30;99.90
18880;DHT22;9572;52.378;13.404;2022-11-20T02:21:24;-0.30;99.90
18880;DHT22;9572;52.378;13.404;2022-11-20T02:24:01;-0.30;99.90
18880;DHT22;9572;52.378;13.404;2022-11-20T02:26:30;-0.30;99.90
18880;DHT22;9572;52.378;13.404;2022-11-20T02:28:59;-0.40;99.90
18880;DHT22;9572;52.378;13.404;2022-11-20T02:31:26;-0.40;99.90
18880;DHT22;9572;52.378;13.404;2022-11-20T02:33:57;-0.40;99.90
18880;DHT22;9572;52.378;13.404;2022-11-20T02:36:26;-0.40;99.90
18880;DHT22;9572;52.378;13.404;2022-11-20T02:38:53;-0.40;99.90
18880;DHT22;9572;52.378;13.404;2022-11-20T02:41:22;-0.30;99.90
18880;DHT22;9572;52.378;13.404;2022-11-20T02:43:56;-0.40;99.90
18880;DHT22;9572;52.378;13.404;2022-11-20T02:46:23;-0.40;99.90
18880;DHT22;9572;52.378;13.404;2022-11-20T02:48:50;-0.50;99.90
18880;DHT22;9572;52.378;13.404;2022-11-20T02:51:17;-0.50;99.90
18880;DHT22;9572;52.378;13.404;2022-11-20T02:53:44;-0.60;99.90
18880;DHT22;9572;52.378;13.404;2022-11-20T02:56:11;-0.60;99.90
18880;DHT22;9572;52.378;13.404;2022-11-20T02:58:39;-0.60;99.90
18880;DHT22;9572;52.378;13.404;2022-11-20T03:01:06;-0.60;99.90
18880;DHT22;9572;52.378;13.404;2022-11-20T03:03:33;-0.70;99.90
18880;DHT22;9572;52.378;13.404;2022-11-20T03:06:00;-0.80;99.90
18880;DHT22;9572;52.378;13.404;2022-11-20T03:08:27;-0.80;99.90
18880;DHT22;9572;52.378;13.404;2022-11-20T03:10:54;-0.80;99.90
18880;DHT22;9572;52.378;13.404;2022-11-20T03:13:21;-0.80;99.90
18880;DHT22;9572;52.378;13.404;2022-11-20T03:15:49;-0.80;99.90
18880;DHT22;9572;52.378;13.404;2022-11-20T03:18:16;-0.70;99.90
18880;DHT22;9572;52.378;13.404;2022-11-20T03:20:43;-0.60;99.90
18880;DHT22;9572;52.378;13.404;2022-11-20T03:23:10;-0.60;99.90
18880;DHT22;9572;52.378;13.404;2022-11-20T03:25:37;-0.60;99.90
18880;DHT22;9572;52.378;13.404;2022-11-20T03:28:04;-0.60;99.90
18880;DHT22;9572;52.378;13.404;2022-11-20T03:30:31;-0.70;99.90
18880;DHT22;9572;52.378;13.404;2022-11-20T03:32:59;-0.70;99.90
18880;DHT22;9572;52.378;13.404;2022-11-20T03:35:26;-0.70;99.90
18880;DHT22;9572;52.378;13.404;2022-11-20T03:37:53;-0.70;99.90
18880;DHT22;9572;52.378;13.404;2022-11-20T03:40:20;-0.60;99.90
18880;DHT22;9572;52.378;13.404;2022-11-20T03:42:47;-0.70;99.90
18880;DHT22;9572;52.378;13.404;2022-11-20T03:45:14;-0.60;99.90
18880;DHT22;9572;52.378;13.404;2022-11-20T03:47:42;-0.50;99.90
18880;DHT22;9572;52.378;13.404;2022-11-20T03:50:12;-0.60;99.90
18880;DHT22;9572;52.378;13.404;2022-11-20T03:52:39;-0.60;99.90
18880;DHT22;9572;52.378;13.404;2022-11-20T03:55:07;-0.50;99.90
18880;DHT22;9572;52.378;13.404;2022-11-20T03:57:34;-0.60;99.90
18880;DHT22;9572;52.378;13.404;2022-11-20T04:00:02;-0.60;99.90
18880;DHT22;9572;52.378;13.404;2022-11-20T04:02:29;-0.60;99.90
18880;DHT22;9572;52.378;13.404;2022-11-20T04:04:56;-0.50;99.90
18880;DHT22;9572;52.378;13.404;2022-11-20T04:07:25;-0.50;99.90
18880;DHT22;9572;52.378;13.404;2022-11-20T04:09:51;-0.50;99.90
18880;DHT22;9572;52.378;13.404;2022-11-20T04:12:18;-0.50;99.90
18880;DHT22;9572;52.378;13.404;2022-11-20T04:14:45;-0.50;99.90
18880;DHT22;9572;52.378;13.404;2022-11-20T04:17:12;-0.50;99.90
18880;DHT22;9572;52.378;13.404;2022-11-20T04:19:39;-0.40;99.90
18880;DHT22;9572;52.378;13.404;2022-11-20T04:22:06;-0.50;99.90
18880;DHT22;9572;52.378;13.404;2022-11-20T04:24:35;-0.40;99.90
18880;DHT22;9572;52.378;13.404;2022-11-20T04:27:02;-0.40;99.90
18880;DHT22;9572;52.378;13.404;2022-11-20T04:29:29;-0.50;99.90
18880;DHT22;9572;52.378;13.404;2022-11-20T04:31:56;-0.40;99.90
18880;DHT22;9572;52.378;13.404;2022-11-20T04:34:22;-0.40;99.90
18880;DHT22;9572;52.378;13.404;2022-11-20T04:36:49;-0.30;99.90
18880;DHT22;9572;52.378;13.404;2022-11-20T04:39:16;-0.30;99.90
18880;DHT22;9572;52.378;13.404;2022-11-20T04:41:44;-0.30;99.90
18880;DHT22;9572;52.378;13.404;2022-11-20T04:44:11;-0.30;99.90
18880;DHT22;9572;52.378;13.404;2022-11-20T04:46:41;-0.30;99.90
18880;DHT22;9572;52.378;13.404;2022-11-20T04:49:08;-0.30;99.90
18880;DHT22;9572;52.378;13.404;2022-11-20T04:51:35;-0.30;99.90
18880;DHT22;9572;52.378;13.404;2022-11-20T04:54:02;-0.30;99.90
18880;DHT22;9572;52.378;13.404;2022-11-20T04:56:29;-0.30;99.90
18880;DHT22;9572;52.378;13.404;2022-11-20T04:59:02;-0.30;99.90
18880;DHT22;9572;52.378;13.404;2022-11-20T05:01:29;-0.20;99.90
18880;DHT22;9572;52.378;13.404;2022-11-20T05:03:57;-0.10;99.90
18880;DHT22;9572;52.378;13.404;2022-11-20T05:06:24;-0.10;99.90
18880;DHT22;9572;52.378;13.404;2022-11-20T05:08:51;-0.20;99.90
18880;DHT22;9572;52.378;13.404;2022-11-20T05:11:20;-0.20;99.90
18880;DHT22;9572;52.378;13.404;2022-11-20T05:13:47;-0.10;99.90
18880;DHT22;9572;52.378;13.404;2022-11-20T05:16:17;-0.20;99.90
18880;DHT22;9572;52.378;13.404;2022-11-20T05:18:44;-0.30;99.90
18880;DHT22;9572;52.378;13.404;2022-11-20T05:21:12;-0.20;99.90
18880;DHT22;9572;52.378;13.404;2022-11-20T05:23:39;-0.30;99.90
18880;DHT22;9572;52.378;13.404;2022-11-20T05:26:08;-0.30;99.90
18880;DHT22;9572;52.378;13.404;2022-11-20T05:28:35;-0.20;99.90
18880;DHT22;9572;52.378;13.404;2022-11-20T05:31:06;-0.20;99.90
18880;DHT22;9572;52.378;13.404;2022-11-20T05:33:35;-0.20;99.90
18880;DHT22;9572;52.378;13.404;2022-11-20T05:36:03;-0.10;99.90
18880;DHT22;9572;52.378;13.404;2022-11-20T05:38:30;0.00;99.90
18880;DHT22;9572;52.378;13.404;2022-11-20T05:41:03;0.00;99.90
18880;DHT22;9572;52.378;13.404;2022-11-20T05:43:32;0.00;99.90
18880;DHT22;9572;52.378;13.404;2022-11-20T05:45:59;-0.10;99.90
18880;DHT22;9572;52.378;13.404;2022-11-20T05:48:26;0.00;99.90
18880;DHT22;9572;52.378;13.404;2022-11-20T05:50:56;0.10;99.90
18880;DHT22;9572;52.378;13.404;2022-11-20T05:53:24;0.00;99.90
18880;DHT22;9572;52.378;13.404;2022-11-20T05:55:57;0.00;99.90
18880;DHT22;9572;52.378;13.404;2022-11-20T05:58:24;0.10;99.90
18880;DHT22;9572;52.378;13.404;2022-11-20T06:00:51;0.10;99.90
18880;DHT22;9572;52.378;13.404;2022-11-20T06:03:18;0.10;99.90
18880;DHT22;9572;52.378;13.404;2022-11-20T06:05:45;0.10;99.90
18880;DHT22;9572;52.378;13.404;2022-11-20T06:08:13;0.10;99.90
18880;DHT22;9572;52.378;13.404;2022-11-20T06:10:40;0.10;99.90
18880;DHT22;9572;52.378;13.404;2022-11-20T06:13:07;0.10;99.90
18880;DHT22;9572;52.378;13.404;2022-11-20T06:15:34;0.10;99.90
18880;DHT22;9572;52.378;13.404;2022-11-20T06:18:01;0.20;99.90
18880;DHT22;9572;52.378;13.404;2022-11-20T06:20:28;0.10;99.90
18880;DHT22;9572;52.378;13.404;2022-11-20T06:22:56;0.10;99.90
18880;DHT22;9572;52.378;13.404;2022-11-20T06:25:24;0.10;99.90
18880;DHT22;9572;52.378;13.404;2022-11-20T06:27:52;0.10;99.90
18880;DHT22;9572;52.378;13.404;2022-11-20T06:30:19;0.10;99.90
18880;DHT22;9572;52.378;13.404;2022-11-20T06:32:45;0.10;99.90
18880;DHT22;9572;52.378;13.404;2022-11-20T06:35:13;0.10;99.90
18880;DHT22;9572;52.378;13.404;2022-11-20T06:37:40;0.10;99.90
18880;DHT22;9572;52.378;13.404;2022-11-20T06:40:08;0.10;99.90
18880;DHT22;9572;52.378;13.404;2022-11-20T06:42:36;0.10;99.90
18880;DHT22;9572;52.378;13.404;2022-11-20T06:45:04;0.10;99.90
18880;DHT22;9572;52.378;13.404;2022-11-20T06:47:32;0.10;99.90
18880;DHT22;9572;52.378;13.404;2022-11-20T06:49:59;0.10;99.90
18880;DHT22;9572;52.378;13.404;2022-11-20T06:52:26;0.10;99.90
18880;DHT22;9572;52.378;13.404;2022-11-20T06:54:53;0.20;99.90
18880;DHT22;9572;52.378;13.404;2022-11-20T06:57:20;0.10;99.90
18880;DHT22;9572;52.378;13.404;2022-11-20T06:59:49;0.00;99.90
18880;DHT22;9572;52.378;13.404;2022-11-20T07:02:16;0.00;99.90
18880;DHT22;9572;52.378;13.404;2022-11-20T07:04:43;0.10;99.90
18880;DHT22;9572;52.378;13.404;2022-11-20T07:07:10;0.00;99.90
18880;DHT22;9572;52.378;13.404;2022-11-20T07:09:37;0.00;99.90
18880;DHT22;9572;52.378;13.404;2022-11-20T07:12:05;0.10;99.90
18880;DHT22;9572;52.378;13.404;2022-11-20T07:14:32;0.10;99.90
18880;DHT22;9572;52.378;13.404;2022-11-20T07:17:00;0.00;99.90
18880;DHT22;9572;52.378;13.404;2022-11-20T07:19:27;0.00;99.90
18880;DHT22;9572;52.378;13.404;2022-11-20T07:21:54;0.00;99.90
18880;DHT22;9572;52.378;13.404;2022-11-20T07:24:21;0.00;99.90
18880;DHT22;9572;52.378;13.404;2022-11-20T07:26:48;0.00;99.90
18880;DHT22;9572;52.378;13.404;2022-11-20T07:29:15;-0.10;99.90
18880;DHT22;9572;52.378;13.404;2022-11-20T07:31:43;0.00;99.90
18880;DHT22;9572;52.378;13.404;2022-11-20T07:34:11;0.00;99.90
18880;DHT22;9572;52.378;13.404;2022-11-20T07:36:38;0.00;99.90
18880;DHT22;9572;52.378;13.404;2022-11-20T07:39:06;0.00;99.90
18880;DHT22;9572;52.378;13.404;2022-11-20T07:41:33;0.00;99.90
18880;DHT22;9572;52.378;13.404;2022-11-20T07:44:00;-0.10;99.90
18880;DHT22;9572;52.378;13.404;2022-11-20T07:46:27;-0.10;99.90
18880;DHT22;9572;52.378;13.404;2022-11-20T07:48:54;0.00;99.90
18880;DHT22;9572;52.378;13.404;2022-11-20T07:51:22;0.00;99.90
18880;DHT22;9572;52.378;13.404;2022-11-20T07:53:53;0.00;99.90
18880;DHT22;9572;52.378;13.404;2022-11-20T07:56:20;0.00;99.90
18880;DHT22;9572;52.378;13.404;2022-11-20T07:58:47;-0.10;99.90
18880;DHT22;9572;52.378;13.404;2022-11-20T08:01:14;0.00;99.90
18880;DHT22;9572;52.378;13.404;2022-11-20T08:03:41;-0.10;99.90
18880;DHT22;9572;52.378;13.404;2022-11-20T08:06:08;-0.10;99.90
18880;DHT22;9572;52.378;13.404;2022-11-20T08:08:36;0.00;99.90
18880;DHT22;9572;52.378;13.404;2022-11-20T08:11:05;0.00;99.90
18880;DHT22;9572;52.378;13.404;2022-11-20T08:13:49;0.10;99.90
18880;DHT22;9572;52.378;13.404;2022-11-20T08:16:33;0.20;99.90
18880;DHT22;9572;52.378;13.404;2022-11-20T08:19:00;0.20;99.90
18880;DHT22;9572;52.378;13.404;2022-11-20T08:21:27;0.30;99.90
18880;DHT22;9572;52.378;13.404;2022-11-20T08:23:56;0.30;99.90
18880;DHT22;9572;52.378;13.404;2022-11-20T08:26:24;0.40;99.90
18880;DHT22;9572;52.378;13.404;2022-11-20T08:28:53;0.40;99.90
18880;DHT22;9572;52.378;13.404;2022-11-20T08:31:21;0.30;99.90
18880;DHT22;9572;52.378;13.404;2022-11-20T08:33:48;0.30;99.90
18880;DHT22;9572;52.378;13.404;2022-11-20T08:36:15;0.30;99.90
18880;DHT22;9572;52.378;13.404;2022-11-20T08:38:42;0.30;99.90
18880;DHT22;9572;52.378;13.404;2022-11-20T08:41:14;0.30;99.90
18880;DHT22;9572;52.378;13.404;2022-11-20T08:43:51;0.30;99.90
18880;DHT22;9572;52.378;13.404;2022-11-20T08:46:19;0.30;99.90
18880;DHT22;9572;52.378;13.404;2022-11-20T08:48:46;0.30;99.90
18880;DHT22;9572;52.378;13.404;2022-11-20T08:51:13;0.30;99.90
18880;DHT22;9572;52.378;13.404;2022-11-20T08:53:40;0.20;99.90
18880;DHT22;9572;52.378;13.404;2022-11-20T08:56:08;0.30;99.90
18880;DHT22;9572;52.378;13.404;2022-11-20T08:58:37;0.30;99.90
18880;DHT22;9572;52.378;13.404;2022-11-20T09:01:05;0.30;99.90
18880;DHT22;9572;52.378;13.404;2022-11-20T09:03:32;0.30;99.90
18880;DHT22;9572;52.378;13.404;2022-11-20T09:05:59;0.20;99.90
18880;DHT22;9572;52.378;13.404;2022-11-20T09:08:27;0.20;99.90
18880;DHT22;9572;52.378;13.404;2022-11-20T09:10:55;0.20;99.90
18880;DHT22;9572;52.378;13.404;2022-11-20T09:13:23;0.20;99.90
18880;DHT22;9572;52.378;13.404;2022-11-20T09:15:54;0.20;99.90
18880;DHT22;9572;52.378;13.404;2022-11-20T09:18:22;0.10;99.90
18880;DHT22;9572;52.378;13.404;2022-11-20T09:20:49;0.10;99.90
18880;DHT22;9572;52.378;13.404;2022-11-20T09:23:16;0.10;99.90
18880;DHT22;9572;52.378;13.404;2022-11-20T09:25:43;0.10;99.90
18880;DHT22;9572;52.378;13.404;2022-11-20T09:28:10;0.10;99.90
18880;DHT22;9572;52.378;13.404;2022-11-20T09:30:37;0.10;99.90
18880;DHT22;9572;52.378;13.404;2022-11-20T09:33:06;0.10;99.90
18880;DHT22;9572;52.378;13.404;2022-11-20T09:35:33;0.10;99.90
18880;DHT22;9572;52.378;13.404;2022-11-20T09:38:05;0.20;99.90
18880;DHT22;9572;52.378;13.404;2022-11-20T09:40:32;0.20;99.90
18880;DHT22;9572;52.378;13.404;2022-11-20T09:43:04;0.20;99.90
18880;DHT22;9572;52.378;13.404;2022-11-20T09:45:47;0.20;99.90
18880;DHT22;9572;52.378;13.404;2022-11-20T09:48:32;0.20;99.90
18880;DHT22;9572;52.378;13.404;2022-11-20T09:51:09;0.30;99.90
18880;DHT22;9572;52.378;13.404;2022-11-20T09:53:50;0.30;99.90
18880;DHT22;9572;52.378;13.404;2022-11-20T09:56:20;0.40;99.90
18880;DHT22;9572;52.378;13.404;2022-11-20T09:58:50;0.40;99.90
18880;DHT22;9572;52.378;13.404;2022-11-20T10:01:19;0.40;99.90
18880;DHT22;9572;52.378;13.404;2022-11-20T10:03:55;0.40;99.90
18880;DHT22;9572;52.378;13.404;2022-11-20T10:06:29;0.50;99.90
18880;DHT22;9572;52.378;13.404;2022-11-20T10:09:04;0.50;99.90
18880;DHT22;9572;52.378;13.404;2022-11-20T10:11:39;0.60;99.90
18880;DHT22;9572;52.378;13.404;2022-11-20T10:14:18;0.60;99.90
18880;DHT22;9572;52.378;13.404;2022-11-20T10:16:53;0.60;99.90
18880;DHT22;9572;52.378;13.404;2022-11-20T10:19:35;0.60;99.90
18880;DHT22;9572;52.378;13.404;2022-11-20T10:22:12;0.60;99.90
18880;DHT22;9572;52.378;13.404;2022-11-20T10:24:51;0.70;99.90
18880;DHT22;9572;52.378;13.404;2022-11-20T10:27:56;0.70;99.90
18880;DHT22;9572;52.378;13.404;2022-11-20T10:30:27;0.60;99.90
18880;DHT22;9572;52.378;13.404;2022-11-20T10:33:00;0.70;99.90
18880;DHT22;9572;52.378;13.404;2022-11-20T10:35:35;0.70;99.90
18880;DHT22;9572;52.378;13.404;2022-11-20T10:38:10;0.70;99.90
18880;DHT22;9572;52.378;13.404;2022-11-20T10:40:42;0.80;99.90
18880;DHT22;9572;52.378;13.404;2022-11-20T10:43:13;0.90;99.90
18880;DHT22;9572;52.378;13.404;2022-11-20T10:45:48;0.90;99.90
18880;DHT22;9572;52.378;13.404;2022-11-20T10:48:20;1.00;99.90
18880;DHT22;9572;52.378;13.404;2022-11-20T10:51:10;1.00;99.90
18880;DHT22;9572;52.378;13.404;2022-11-20T10:53:56;1.00;99.90
18880;DHT22;9572;52.378;13.404;2022-11-20T10:56:30;1.00;99.90
18880;DHT22;9572;52.378;13.404;2022-11-20T10:59:35;1.00;99.90
18880;DHT22;9572;52.378;13.404;2022-11-20T11:02:18;1.10;99.90
18880;DHT22;9572;52.378;13.404;2022-11-20T11:04:47;1.10;99.90
18880;DHT22;9572;52.378;13.404;2022-11-20T11:07:19;1.10;99.90
18880;DHT22;9572;52.378;13.404;2022-11-20T11:09:49;1.10;99.90
18880;DHT22;9572;52.378;13.404;2022-11-20T11:12:17;1.20;99.90
18880;DHT22;9572;52.378;13.404;2022-11-20T11:14:48;1.20;99.90
18880;DHT22;9572;52.378;13.404;2022-11-20T11:17:30;1.30;99.90
18880;DHT22;9572;52.378;13.404;2022-11-20T11:20:06;1.30;99.90
18880;DHT22;9572;52.378;13.404;2022-11-20T11:22:43;1.30;99.90
18880;DHT22;9572;52.378;13.404;2022-11-20T11:25:23;1.30;99.90
18880;DHT22;9572;52.378;13.404;2022-11-20T11:27:52;1.30;99.90
18880;DHT22;9572;52.378;13.404;2022-11-20T11:30:21;1.30;99.90
18880;DHT22;9572;52.378;13.404;2022-11-20T11:32:48;1.30;99.90
18880;DHT22;9572;52.378;13.404;2022-11-20T11:35:23;1.40;99.90
18880;DHT22;9572;52.378;13.404;2022-11-20T11:37:54;1.50;99.90
18880;DHT22;9572;52.378;13.404;2022-11-20T11:40:22;1.60;99.90
18880;DHT22;9572;52.378;13.404;2022-11-20T11:42:56;1.70;99.90
18880;DHT22;9572;52.378;13.404;2022-11-20T11:45:24;1.70;99.90
18880;DHT22;9572;52.378;13.404;2022-11-20T11:47:53;1.80;99.90
18880;DHT22;9572;52.378;13.404;2022-11-20T11:50:22;1.80;99.90
18880;DHT22;9572;52.378;13.404;2022-11-20T11:52:58;1.80;99.90
18880;DHT22;9572;52.378;13.404;2022-11-20T11:55:36;1.90;99.90
18880;DHT22;9572;52.378;13.404;2022-11-20T11:58:11;1.90;99.90
18880;DHT22;9572;52.378;13.404;2022-11-20T12:00:45;1.90;99.90
18880;DHT22;9572;52.378;13.404;2022-11-20T12:03:19;2.00;99.90
18880;DHT22;9572;52.378;13.404;2022-11-20T12:05:55;2.10;99.90
18880;DHT22;9572;52.378;13.404;2022-11-20T12:08:30;2.10;99.90
18880;DHT22;9572;52.378;13.404;2022-11-20T12:11:06;2.10;99.90
18880;DHT22;9572;52.378;13.404;2022-11-20T12:13:44;2.20;99.90
18880;DHT22;9572;52.378;13.404;2022-11-20T12:16:19;2.20;99.90
18880;DHT22;9572;52.378;13.404;2022-11-20T12:18:48;2.20;99.90
18880;DHT22;9572;52.378;13.404;2022-11-20T12:21:31;2.20;99.90
18880;DHT22;9572;52.378;13.404;2022-11-20T12:24:23;2.20;99.90
18880;DHT22;9572;52.378;13.404;2022-11-20T12:27:04;2.20;99.90
18880;DHT22;9572;52.378;13.404;2022-11-20T12:29:40;2.20;99.90
18880;DHT22;9572;52.378;13.404;2022-11-20T12:32:31;2.20;99.90
18880;DHT22;9572;52.378;13.404;2022-11-20T12:35:14;2.20;99.90
18880;DHT22;9572;52.378;13.404;2022-11-20T12:37:48;2.10;99.90
18880;DHT22;9572;52.378;13.404;2022-11-20T12:40:27;2.10;99.90
18880;DHT22;9572;52.378;13.404;2022-11-20T12:43:04;2.10;99.90
18880;DHT22;9572;52.378;13.404;2022-11-20T12:46:25;2.00;99.90
18880;DHT22;9572;52.378;13.404;2022-11-20T12:52:20;1.90;99.90
18880;DHT22;9572;52.378;13.404;2022-11-20T12:55:11;1.80;99.90
18880;DHT22;9572;52.378;13.404;2022-11-20T12:57:47;1.80;99.90
18880;DHT22;9572;52.378;13.404;2022-11-20T13:00:18;1.80;99.90
18880;DHT22;9572;52.378;13.404;2022-11-20T13:03:16;1.70;99.90
18880;DHT22;9572;52.378;13.404;2022-11-20T13:05:59;1.70;99.90
18880;DHT22;9572;52.378;13.404;2022-11-20T13:08:30;1.80;99.90
18880;DHT22;9572;52.378;13.404;2022-11-20T13:11:03;1.80;99.90
18880;DHT22;9572;52.378;13.404;2022-11-20T13:13:43;1.80;99.90
18880;DHT22;9572;52.378;13.404;2022-11-20T13:16:16;1.80;99.90
18880;DHT22;9572;52.378;13.404;2022-11-20T13:18:45;1.80;99.90
18880;DHT22;9572;52.378;13.404;2022-11-20T13:21:18;1.80;99.90
18880;DHT22;9572;52.378;13.404;2022-11-20T13:23:45;1.70;99.90
18880;DHT22;9572;52.378;13.404;2022-11-20T13:26:17;1.70;99.90
18880;DHT22;9572;52.378;13.404;2022-11-20T13:28:58;1.80;99.90
18880;DHT22;9572;52.378;13.404;2022-11-20T13:31:31;1.70;99.90
18880;DHT22;9572;52.378;13.404;2022-11-20T13:34:00;1.80;99.90
18880;DHT22;9572;52.378;13.404;2022-11-20T13:36:29;1.70;99.90
18880;DHT22;9572;52.378;13.404;2022-11-20T13:38:58;1.70;99.90
18880;DHT22;9572;52.378;13.404;2022-11-20T13:41:28;1.60;99.90
18880;DHT22;9572;52.378;13.404;2022-11-20T13:44:29;1.60;99.90
18880;DHT22;9572;52.378;13.404;2022-11-20T13:46:53;1.50;99.90
18880;DHT22;9572;52.378;13.404;2022-11-20T13:49:25;1.60;99.90
18880;DHT22;9572;52.378;13.404;2022-11-20T13:52:04;1.60;99.90
18880;DHT22;9572;52.378;13.404;2022-11-20T14:00:27;1.60;99.90
18880;DHT22;9572;52.378;13.404;2022-11-20T14:03:02;1.50;99.90
18880;DHT22;9572;52.378;13.404;2022-11-20T14:05:36;1.40;99.90
18880;DHT22;9572;52.378;13.404;2022-11-20T14:08:05;1.40;99.90
18880;DHT22;9572;52.378;13.404;2022-11-20T14:10:33;1.40;99.90
18880;DHT22;9572;52.378;13.404;2022-11-20T14:13:10;1.40;99.90
18880;DHT22;9572;52.378;13.404;2022-11-20T14:15:39;1.30;99.90
18880;DHT22;9572;52.378;13.404;2022-11-20T14:18:14;1.40;99.90
18880;DHT22;9572;52.378;13.404;2022-11-20T14:20:43;1.40;99.90
18880;DHT22;9572;52.378;13.404;2022-11-20T14:23:10;1.40;99.90
18880;DHT22;9572;52.378;13.404;2022-11-20T14:25:42;1.30;99.90
18880;DHT22;9572;52.378;13.404;2022-11-20T14:28:21;1.40;99.90
18880;DHT22;9572;52.378;13.404;2022-11-20T14:30:54;1.40;99.90
18880;DHT22;9572;52.378;13.404;2022-11-20T14:33:21;1.40;99.90
18880;DHT22;9572;52.378;13.404;2022-11-20T14:35:52;1.40;99.90
18880;DHT22;9572;52.378;13.404;2022-11-20T14:38:22;1.40;99.90
18880;DHT22;9572;52.378;13.404;2022-11-20T14:40:50;1.40;99.90
18880;DHT22;9572;52.378;13.404;2022-11-20T14:43:20;1.40;99.90
18880;DHT22;9572;52.378;13.404;2022-11-20T14:45:57;1.30;99.90
18880;DHT22;9572;52.378;13.404;2022-11-20T14:48:29;1.40;99.90
18880;DHT22;9572;52.378;13.404;2022-11-20T14:51:04;1.30;99.90
18880;DHT22;9572;52.378;13.404;2022-11-20T14:57:26;1.40;99.90
18880;DHT22;9572;52.378;13.404;2022-11-20T15:00:17;1.30;99.90
18880;DHT22;9572;52.378;13.404;2022-11-20T15:03:00;1.40;99.90
18880;DHT22;9572;52.378;13.404;2022-11-20T15:05:44;1.40;99.90
18880;DHT22;9572;52.378;13.404;2022-11-20T15:08:13;1.40;99.90
18880;DHT22;9572;52.378;13.404;2022-11-20T15:10:45;1.40;99.90
18880;DHT22;9572;52.378;13.404;2022-11-20T15:13:15;1.50;99.90
18880;DHT22;9572;52.378;13.404;2022-11-20T15:15:46;1.50;99.90
18880;DHT22;9572;52.378;13.404;2022-11-20T15:18:20;1.40;99.90
18880;DHT22;9572;52.378;13.404;2022-11-20T15:20:49;1.40;99.90
18880;DHT22;9572;52.378;13.404;2022-11-20T15:23:19;1.40;99.90
18880;DHT22;9572;52.378;13.404;2022-11-20T15:25:46;1.50;99.90
18880;DHT22;9572;52.378;13.404;2022-11-20T15:28:18;1.50;99.90
18880;DHT22;9572;52.378;13.404;2022-11-20T15:30:46;1.60;99.90
18880;DHT22;9572;52.378;13.404;2022-11-20T15:33:16;1.60;99.90
18880;DHT22;9572;52.378;13.404;2022-11-20T15:35:44;1.50;99.90
18880;DHT22;9572;52.378;13.404;2022-11-20T15:38:11;1.50;99.90
18880;DHT22;9572;52.378;13.404;2022-11-20T15:40:38;1.50;99.90
18880;DHT22;9572;52.378;13.404;2022-11-20T15:43:05;1.50;99.90
18880;DHT22;9572;52.378;13.404;2022-11-20T15:45:37;1.50;99.90
18880;DHT22;9572;52.378;13.404;2022-11-20T15:48:08;1.40;99.90
18880;DHT22;9572;52.378;13.404;2022-11-20T15:50:49;1.30;99.90
18880;DHT22;9572;52.378;13.404;2022-11-20T15:53:20;1.40;99.90
18880;DHT22;9572;52.378;13.404;2022-11-20T15:55:47;1.40;99.90
18880;DHT22;9572;52.378;13.404;2022-11-20T15:58:17;1.40;99.90
18880;DHT22;9572;52.378;13.404;2022-11-20T16:00:46;1.40;99.90
18880;DHT22;9572;52.378;13.404;2022-11-20T16:03:15;1.40;99.90
18880;DHT22;9572;52.378;13.404;2022-11-20T16:05:44;1.50;99.90
18880;DHT22;9572;52.378;13.404;2022-11-20T16:08:11;1.50;99.90
18880;DHT22;9572;52.378;13.404;2022-11-20T16:10:38;1.50;99.90
18880;DHT22;9572;52.378;13.404;2022-11-20T16:13:13;1.50;99.90
18880;DHT22;9572;52.378;13.404;2022-11-20T16:15:59;1.50;99.90